Hurricane, Mississippi
Current Conditions -  °F | °C
As of 12:15 PM on Thursday 25 Dec 2014 (Local Time) from KUOX Reporting Station
Clear Clear  
Wind Chill: 46°   Ceiling: Unl
Heat Index: 48°   Visibility: 10mi
Dew Point: 32°   Wind: 6mph
Humidity: 54%   Direction: 210°SSW
Pressure: 30.19"   Gusts: NA
Location:  34.3046°N, 89.1605°W
Report Text: KUOX 251815Z AUTO 21005KT 10SM CLR 09/00 A3019 RMK AO2 PWINO PNO
Loading
Personal Weather Stations






























Interactive Weather Map New forecast layout! Learn more

10-Day Weather Forecast

Advertisements
Track Severe Weather on mobile